Terminal Aerodrome Forecast
Issued by NWS

Home | Current Version | Previous Version | Graphics & Text | Print | Product List | Glossary On
Versions: 1 2 3 4 5 6 7 8 9 10 11 12 13 14
000
FTUS43 KFGF 291300 AAA
TAFBJI
TAF AMD
KBJI 291316Z 2913/3012 31016G21KT 4SM -DZ OVC006
     FM291400 31018G25KT P6SM -SHRA SCT006 OVC013
     FM291500 30020G28KT P6SM OVC015
     FM292000 30015G22KT P6SM SCT025
     FM300000 VRB06KT P6SM SCT250=

USA.gov is the U.S. government's official web portal to all federal, state and local government web resources and services.